»·PEaware :: N203WA KEUG-KPDX

N203WA :: KEUG-KPDX

FLIGHT INFORMATION

Flight Status: Arrived
Operator: Privately registered:
United States
More flights under this callsign
Pilot: Scott R. (7279)
Aircraft: BEECH AIRCRAFT BARON
(BE58)
More flights by this aircraft type
Origin: KEUG Mahlon Sweet
United States
Destination: KPDX Portland Intl
United States
More flights between these airports :: More routes between these airports
Route: +EUG9 CVO V495 UBG
File this flight plan on PilotEdge
Remarks:
Altitude:
(Current/Filed)
6,000ft
Speed:
(Current/Filed)
180kts
Departed: 23-Dec-17 04:07 PM
Arrived: 23-Dec-17 05:01 PM
Distance/Time
Traveled:
92nm/0:54
Distance/Time
To Go:
Arrived

Flight Plot

Page will automatically refresh every two minutes.

Flight plan parsing failed; only flown route is shown


Map Options




Map Legend


Flown Route
Filed Route
Departure Airport
Arrival Airport
Navaid (VOR, NDB)
Fix

Horizontal Profiles

Position Reports

Time Latitude Longitude Heading Altitude Ground
Speed
23-Dec-17 15:59 44.116242 -123.215535 222 374ft 0kts
23-Dec-17 16:00 44.116242 -123.215535 222 374ft 0kts
23-Dec-17 16:01 44.116242 -123.215535 222 374ft 0kts
23-Dec-17 16:02 44.116242 -123.215535 222 374ft 0kts
23-Dec-17 16:03 44.116242 -123.215535 222 374ft 0kts
23-Dec-17 16:04 44.116242 -123.215535 222 374ft 0kts
23-Dec-17 16:05 44.116242 -123.215535 222 374ft 0kts
23-Dec-17 16:06 44.116242 -123.215535 222 374ft 0kts
23-Dec-17 16:07 44.116242 -123.215535 222 374ft 0kts
23-Dec-17 16:08 44.116242 -123.215535 222 374ft 0kts
23-Dec-17 16:09 44.116242 -123.215535 222 374ft 0kts
23-Dec-17 16:10 44.116204 -123.215589 227 374ft 3kts
23-Dec-17 16:11 44.114620 -123.217004 208 374ft 9kts
23-Dec-17 16:12 44.114194 -123.217518 228 374ft 0kts
23-Dec-17 16:13 44.115569 -123.218903 359 374ft 59kts
23-Dec-17 16:14 44.144812 -123.219233 359 1120ft 124kts
23-Dec-17 16:15 44.179483 -123.219852 359 2167ft 127kts
23-Dec-17 16:16 44.214424 -123.224328 349 3302ft 127kts
23-Dec-17 16:17 44.248798 -123.233062 350 4366ft 128kts
23-Dec-17 16:18 44.283939 -123.241474 350 5426ft 129kts
23-Dec-17 16:19 44.321031 -123.250349 350 6022ft 154kts
23-Dec-17 16:20 44.365833 -123.261291 350 6015ft 169kts
23-Dec-17 16:21 44.411495 -123.272481 350 6012ft 158kts
23-Dec-17 16:22 44.453355 -123.282755 350 6016ft 149kts
23-Dec-17 16:23 44.493684 -123.292639 350 5995ft 149kts
23-Dec-17 16:24 44.533613 -123.280866 13 5991ft 148kts
23-Dec-17 16:25 44.568573 -123.267976 13 5995ft 148kts
23-Dec-17 16:26 44.608506 -123.253400 13 5995ft 148kts
23-Dec-17 16:27 44.648490 -123.238783 13 5995ft 148kts
23-Dec-17 16:28 44.688496 -123.224066 12 5996ft 149kts
23-Dec-17 16:29 44.728548 -123.209283 12 5997ft 149kts
23-Dec-17 16:30 44.768746 -123.194414 12 5999ft 150kts
23-Dec-17 16:31 44.809230 -123.179415 12 6001ft 150kts
23-Dec-17 16:32 44.849794 -123.164421 12 6003ft 151kts
23-Dec-17 16:33 44.890767 -123.149301 11 5949ft 153kts
23-Dec-17 16:34 44.931757 -123.134135 11 5949ft 152kts
23-Dec-17 16:35 44.972630 -123.119016 11 5949ft 152kts
23-Dec-17 16:36 45.013506 -123.104015 12 5953ft 152kts
23-Dec-17 16:37 45.054536 -123.088958 12 5957ft 152kts
23-Dec-17 16:38 45.095587 -123.073867 12 5962ft 153kts
23-Dec-17 16:39 45.106142 -123.069984 13 5964ft 154kts
23-Dec-17 16:40 45.174511 -123.044669 13 5965ft 156kts
23-Dec-17 16:41 45.216446 -123.029048 13 5965ft 156kts
23-Dec-17 16:42 45.258380 -123.013426 13 5965ft 156kts
23-Dec-17 16:43 45.293370 -123.000451 13 5965ft 156kts
23-Dec-17 16:44 45.335304 -122.985479 13 5970ft 155kts
23-Dec-17 16:45 45.384207 -122.967361 14 5975ft 156kts
23-Dec-17 16:46 45.423388 -122.953591 14 5972ft 129kts
23-Dec-17 16:47 45.456309 -122.942730 14 5979ft 116kts
23-Dec-17 16:48 45.487000 -122.932825 14 5981ft 111kts
23-Dec-17 16:49 45.511894 -122.924839 14 5982ft 109kts
23-Dec-17 16:50 45.541465 -122.915386 14 5982ft 108kts
23-Dec-17 16:51 45.570277 -122.906193 14 5984ft 109kts
23-Dec-17 16:52 45.583361 -122.902019 14 5984ft 109kts
23-Dec-17 16:53 45.605467 -122.894944 15 5986ft 109kts
23-Dec-17 16:54 45.605467 -122.894944 15 5986ft 109kts
23-Dec-17 16:55 45.619024 -122.883694 51 5704ft 119kts
23-Dec-17 16:56 45.639242 -122.843529 53 4828ft 123kts
23-Dec-17 16:57 45.658266 -122.807183 52 3901ft 109kts
23-Dec-17 16:58 45.663312 -122.772302 118 3047ft 105kts
23-Dec-17 16:59 45.651841 -122.744050 114 2423ft 97kts
23-Dec-17 17:00 45.641648 -122.717567 116 1967ft 97kts
23-Dec-17 17:01 45.631795 -122.692091 115 1540ft 95kts
23-Dec-17 17:02 45.621864 -122.666309 115 1136ft 92kts
23-Dec-17 17:03 45.612346 -122.641471 115 760ft 90kts
23-Dec-17 17:04 45.602854 -122.616973 113 372ft 67kts
23-Dec-17 17:05 45.595624 -122.597892 110 96ft 55kts
23-Dec-17 17:06 45.591372 -122.592596 116 29ft 45kts
23-Dec-17 17:07 45.588727 -122.587972 167 29ft 0kts

Navigation Log

Ident Type
Flight plan parsing failed, navigation log unavailable